Time;durP1;ratioP1;P1;durP2;ratioP2;P2;SDS_P1;SDS_P2;PMS_P1;PMS_P2;Temp;Humidity;BMP_temperature;BMP_pressure;BME280_temperature;BME280_humidity;BME280_pressure;Samples;Min_cycle;Max_cycle;Signal;HPM_P1;HPM_P2
2023/04/03 00:01:26;;;;;;;19.40;11.70;;;;;;;7.92;91.76;99841.36;109604;1251;61327;-84
2023/04/03 00:04:15;;;;;;;16.10;11.90;;;;;;;7.91;91.88;99840.04;109600;1251;75625;-85
2023/04/03 00:06:47;;;;;;;18.40;11.60;;;;;;;7.88;92.27;99839.47;109653;1251;64958;-85
2023/04/03 00:09:19;;;;;;;22.60;13.80;;;;;;;7.87;92.55;99841.82;109625;1251;72649;-84
2023/04/03 00:11:47;;;;;;;24.60;15.80;;;;;;;7.87;92.80;99836.41;109648;1251;60041;-83
2023/04/03 00:14:15;;;;;;;21.30;16.10;;;;;;;7.88;93.01;99831.66;109668;1251;61452;-82
2023/04/03 00:16:54;;;;;;;23.30;15.30;;;;;;;7.86;93.15;99817.89;109573;1251;73526;-85
2023/04/03 00:19:23;;;;;;;26.20;16.00;;;;;;;7.85;93.43;99816.55;109640;1251;65212;-83
2023/04/03 00:21:53;;;;;;;24.30;14.40;;;;;;;7.85;93.58;99812.52;109621;1251;73398;-84
2023/04/03 00:24:22;;;;;;;24.30;14.10;;;;;;;7.84;93.89;99813.11;109636;1251;61690;-84
2023/04/03 00:26:58;;;;;;;22.40;14.10;;;;;;;7.81;94.14;99803.77;109703;1251;60181;-84
2023/04/03 00:29:27;;;;;;;24.70;14.90;;;;;;;7.78;94.60;99796.44;109673;1251;73804;-83
2023/04/03 00:31:55;;;;;;;22.30;13.20;;;;;;;7.78;95.06;99805.47;109679;1251;64586;-83
2023/04/03 00:34:24;;;;;;;28.10;17.50;;;;;;;7.80;95.62;99800.70;109616;1251;73940;-83
2023/04/03 00:36:54;;;;;;;29.70;18.10;;;;;;;7.80;96.10;99799.66;109573;1251;62856;-85
2023/04/03 00:39:22;;;;;;;35.60;20.20;;;;;;;7.81;96.34;99800.45;109647;1251;60147;-86
2023/04/03 00:41:55;;;;;;;32.50;18.70;;;;;;;7.84;96.82;99801.46;109621;1251;73773;-86
2023/04/03 00:44:33;;;;;;;30.50;17.20;;;;;;;7.92;97.20;99796.10;109712;1251;63584;-85
2023/04/03 00:47:02;;;;;;;27.10;17.70;;;;;;;7.97;97.26;99797.16;109641;1251;73601;-84
2023/04/03 00:49:30;;;;;;;27.10;15.80;;;;;;;8.00;97.21;99796.14;109489;1251;61032;-84
2023/04/03 00:51:59;;;;;;;27.60;16.70;;;;;;;8.00;97.31;99795.58;109679;1251;60587;-84
2023/04/03 00:54:28;;;;;;;24.50;14.50;;;;;;;8.02;97.43;99802.79;109626;1251;73923;-83
2023/04/03 00:56:57;;;;;;;26.20;15.50;;;;;;;8.04;97.64;99801.81;109584;1251;63825;-85
2023/04/03 00:59:31;;;;;;;26.00;16.70;;;;;;;8.06;97.83;99798.19;109508;1251;72482;-85
2023/04/03 01:02:00;;;;;;;19.60;13.60;;;;;;;8.10;97.96;99796.22;109551;1251;60342;-84
2023/04/03 01:04:31;;;;;;;20.30;13.40;;;;;;;8.12;98.04;99793.98;109656;1251;60916;-83
2023/04/03 01:07:05;;;;;;;16.20;11.50;;;;;;;8.15;98.18;99791.03;109616;1251;74689;-83
2023/04/03 01:09:33;;;;;;;10.90;9.70;;;;;;;8.16;97.75;99793.77;109662;1251;65142;-84
2023/04/03 01:12:16;;;;;;;8.70;7.30;;;;;;;8.11;97.82;99798.42;109574;1251;74013;-84
2023/04/03 01:14:46;;;;;;;8.90;6.40;;;;;;;8.06;98.08;99797.12;109650;1251;61987;-82
2023/04/03 01:17:36;;;;;;;7.30;5.70;;;;;;;8.02;98.36;99796.33;109731;1251;61029;-84
2023/04/03 01:20:32;;;;;;;6.90;4.80;;;;;;;8.01;98.90;99788.77;109549;1251;73754;-82
2023/04/03 01:23:09;;;;;;;4.80;3.90;;;;;;;8.02;99.30;99780.02;109531;1251;63710;-82
2023/04/03 01:25:44;;;;;;;4.10;3.70;;;;;;;8.04;99.63;99776.19;109647;1251;73712;-83
2023/04/03 01:28:26;;;;;;;5.30;3.20;;;;;;;8.07;99.93;99775.30;109645;1251;62714;-84
2023/04/03 01:31:01;;;;;;;4.10;2.90;;;;;;;8.12;99.99;99779.05;109649;1251;61262;-84
2023/04/03 01:33:31;;;;;;;3.80;3.10;;;;;;;8.16;100.00;99770.21;109554;1251;74301;-84
2023/04/03 01:35:59;;;;;;;3.40;2.80;;;;;;;8.20;100.00;99765.30;109603;1251;63593;-83
2023/04/03 01:38:29;;;;;;;4.80;3.20;;;;;;;8.22;100.00;99765.46;109526;1251;73462;-83
2023/04/03 01:42:58;;;;;;;3.70;3.30;;;;;;;8.22;100.00;99751.77;102770;1289;600941;-87
2023/04/03 01:45:26;;;;;;;3.90;3.40;;;;;;;8.16;100.00;99749.17;105003;1264;61426;-86
2023/04/03 01:47:55;;;;;;;5.10;3.70;;;;;;;8.13;100.00;99748.48;104947;1264;61199;-83
2023/04/03 01:50:24;;;;;;;3.70;2.90;;;;;;;8.10;100.00;99745.88;105085;1264;72158;-86
2023/04/03 01:52:53;;;;;;;3.70;3.00;;;;;;;8.07;100.00;99744.36;105067;1269;64803;-83
2023/04/03 01:55:21;;;;;;;4.10;3.10;;;;;;;8.05;100.00;99739.79;106075;1254;73613;-85
2023/04/03 01:57:50;;;;;;;4.40;3.30;;;;;;;8.03;100.00;99740.23;105535;1253;60997;-85
2023/04/03 02:00:18;;;;;;;3.80;3.10;;;;;;;8.00;100.00;99737.63;106000;1252;61234;-85
2023/04/03 02:02:47;;;;;;;3.50;3.20;;;;;;;7.99;100.00;99744.46;106137;1253;73158;-85
2023/04/03 02:05:16;;;;;;;3.70;2.80;;;;;;;8.00;100.00;99755.75;106137;1251;63813;-87
2023/04/03 02:07:44;;;;;;;4.30;3.10;;;;;;;8.01;100.00;99753.58;106134;1251;72600;-86
2023/04/03 02:10:13;;;;;;;3.10;2.60;;;;;;;8.04;100.00;99747.84;106171;1253;63064;-84
2023/04/03 02:12:42;;;;;;;3.20;2.20;;;;;;;8.05;100.00;99748.96;106021;1251;61160;-84
2023/04/03 02:15:10;;;;;;;2.30;2.10;;;;;;;8.06;100.00;99748.21;106167;1249;73926;-87
2023/04/03 02:17:40;;;;;;;4.70;3.20;;;;;;;8.04;100.00;99745.39;106002;1253;64832;-85
2023/04/03 02:20:09;;;;;;;4.10;2.90;;;;;;;8.04;100.00;99745.22;106130;1253;72346;-85
2023/04/03 02:22:39;;;;;;;4.20;2.80;;;;;;;8.04;100.00;99741.54;105957;1256;62694;-85
2023/04/03 02:25:08;;;;;;;3.20;2.80;;;;;;;8.05;100.00;99741.33;106217;1251;60135;-85
2023/04/03 02:27:42;;;;;;;3.60;3.20;;;;;;;8.03;100.00;99736.58;106130;1253;73722;-86
2023/04/03 02:30:11;;;;;;;5.50;4.20;;;;;;;8.01;100.00;99728.54;106203;1251;63864;-83
2023/04/03 02:32:42;;;;;;;13.60;8.90;;;;;;;8.00;100.00;99727.02;106570;1251;73740;-84
2023/04/03 02:35:11;;;;;;;20.30;12.20;;;;;;;8.02;100.00;99727.20;106175;1253;61950;-84
2023/04/03 02:37:40;;;;;;;22.20;12.60;;;;;;;8.06;100.00;99726.27;106221;1252;60341;-85
2023/04/03 02:40:09;;;;;;;18.50;14.90;;;;;;;8.07;100.00;99722.75;106163;1253;74108;-84
2023/04/03 02:42:38;;;;;;;23.00;17.60;;;;;;;8.05;100.00;99722.86;106006;1252;65552;-86
2023/04/03 02:45:07;;;;;;;26.30;16.70;;;;;;;8.04;100.00;99726.61;106065;1251;73607;-83
2023/04/03 02:47:35;;;;;;;23.50;16.60;;;;;;;8.05;100.00;99723.95;106025;1255;61919;-83
2023/04/03 02:50:04;;;;;;;23.50;16.80;;;;;;;8.08;100.00;99724.56;106221;1253;59992;-82
2023/04/03 02:52:33;;;;;;;23.60;17.60;;;;;;;8.12;100.00;99718.27;105984;1256;74668;-86
2023/04/03 02:55:02;;;;;;;18.10;13.60;;;;;;;8.13;100.00;99719.24;106046;1253;64578;-86
2023/04/03 02:57:31;;;;;;;13.30;11.90;;;;;;;8.12;100.00;99716.52;105997;1251;73401;-85
2023/04/03 02:59:59;;;;;;;10.00;8.60;;;;;;;8.13;100.00;99720.13;105946;1251;63248;-84
2023/04/03 03:02:28;;;;;;;9.70;8.70;;;;;;;8.12;100.00;99722.08;105998;1251;61265;-86
2023/04/03 03:04:57;;;;;;;8.80;6.10;;;;;;;8.10;100.00;99724.25;106023;1251;72692;-87
2023/04/03 03:07:26;;;;;;;7.00;6.40;;;;;;;8.10;100.00;99720.80;106077;1253;64643;-86
2023/04/03 03:09:55;;;;;;;6.90;6.20;;;;;;;8.11;100.00;99717.31;106024;1254;72397;-85
2023/04/03 03:12:24;;;;;;;8.40;7.00;;;;;;;8.12;100.00;99718.97;106083;1254;62957;-86
2023/04/03 03:14:54;;;;;;;7.50;6.80;;;;;;;8.12;100.00;99714.43;106121;1251;61526;-83
2023/04/03 03:17:23;;;;;;;7.80;7.00;;;;;;;8.12;100.00;99715.80;106123;1251;74253;-86
2023/04/03 03:19:51;;;;;;;8.50;7.50;;;;;;;8.12;100.00;99710.98;105898;1251;63839;-86
2023/04/03 03:22:21;;;;;;;8.70;7.90;;;;;;;8.12;100.00;99708.90;105864;1251;73401;-86
2023/04/03 03:24:50;;;;;;;10.30;8.60;;;;;;;8.12;100.00;99707.69;106068;1253;62933;-86
2023/04/03 03:27:19;;;;;;;11.70;9.10;;;;;;;8.12;100.00;99708.52;106119;1251;61239;-89
2023/04/03 03:29:47;;;;;;;9.00;8.10;;;;;;;8.13;100.00;99706.36;106003;1256;74057;-83
2023/04/03 03:32:15;;;;;;;9.00;8.10;;;;;;;8.14;100.00;99703.00;106109;1253;64800;-87
2023/04/03 03:34:44;;;;;;;9.70;8.80;;;;;;;8.15;100.00;99703.08;106691;1250;73512;-85
2023/04/03 03:37:12;;;;;;;11.10;9.50;;;;;;;8.16;100.00;99701.27;107965;1251;61011;-85
2023/04/03 03:39:41;;;;;;;10.50;8.20;;;;;;;8.17;100.00;99698.06;106764;1252;61184;-85
2023/04/03 03:42:09;;;;;;;8.70;7.80;;;;;;;8.19;100.00;99698.16;106540;1254;73038;-84
2023/04/03 03:44:38;;;;;;;9.70;7.70;;;;;;;8.17;100.00;99695.98;106203;1250;63985;-82
2023/04/03 03:47:06;;;;;;;10.40;9.40;;;;;;;8.15;100.00;99695.42;106003;1254;73931;-87
2023/04/03 03:49:35;;;;;;;11.20;9.60;;;;;;;8.16;100.00;99697.83;106083;1254;61951;-85
2023/04/03 03:52:03;;;;;;;10.80;8.90;;;;;;;8.15;100.00;99696.84;106134;1256;59996;-85
2023/04/03 03:54:31;;;;;;;11.30;9.90;;;;;;;8.15;100.00;99693.38;105900;1251;73080;-82
2023/04/03 03:57:00;;;;;;;11.30;10.00;;;;;;;8.15;100.00;99691.45;106017;1256;64857;-84
2023/04/03 03:59:31;;;;;;;11.50;9.70;;;;;;;8.16;100.00;99692.55;106134;1251;74566;-86
2023/04/03 04:02:00;;;;;;;9.20;7.10;;;;;;;8.18;100.00;99692.99;106070;1253;61976;-87
2023/04/03 04:04:29;;;;;;;6.70;6.10;;;;;;;8.21;100.00;99695.71;106101;1256;61073;-85
2023/04/03 04:06:59;;;;;;;7.40;5.80;;;;;;;8.24;100.00;99692.91;106102;1257;73041;-85
2023/04/03 04:09:28;;;;;;;7.30;5.10;;;;;;;8.26;100.00;99691.02;106208;1251;64525;-85
2023/04/03 04:11:56;;;;;;;6.40;4.00;;;;;;;8.28;100.00;99688.98;105949;1251;73967;-86
2023/04/03 04:14:28;;;;;;;3.00;2.70;;;;;;;8.30;100.00;99685.20;107455;1253;63186;-84
2023/04/03 04:16:57;;;;;;;3.60;3.10;;;;;;;8.32;100.00;99693.13;107646;1251;60012;-84
2023/04/03 04:19:26;;;;;;;3.40;3.10;;;;;;;8.32;100.00;99688.05;106506;1251;73968;-87
2023/04/03 04:21:55;;;;;;;4.70;3.20;;;;;;;8.33;100.00;99686.77;106120;1257;64847;-88
2023/04/03 04:24:24;;;;;;;2.80;2.50;;;;;;;8.33;100.00;99689.89;106234;1251;73443;-86
2023/04/03 04:26:53;;;;;;;3.70;3.30;;;;;;;8.33;100.00;99686.05;106119;1251;61685;-87
2023/04/03 04:29:22;;;;;;;4.30;3.90;;;;;;;8.34;100.00;99687.25;106634;1251;61454;-86
2023/04/03 04:31:51;;;;;;;5.00;4.50;;;;;;;8.34;100.00;99685.69;106586;1251;72963;-89
2023/04/03 04:34:21;;;;;;;4.50;3.80;;;;;;;8.35;100.00;99681.25;106178;1250;64277;-88
2023/04/03 04:36:50;;;;;;;6.20;5.60;;;;;;;8.36;100.00;99681.55;105964;1258;72617;-88
2023/04/03 04:39:19;;;;;;;4.70;4.30;;;;;;;8.34;100.00;99676.42;106052;1256;63017;-88
2023/04/03 04:41:48;;;;;;;6.30;5.00;;;;;;;8.37;100.00;99678.86;106010;1255;60042;-87
2023/04/03 04:44:17;;;;;;;5.50;4.40;;;;;;;8.37;100.00;99677.14;105991;1256;74091;-86
2023/04/03 04:46:46;;;;;;;5.20;4.80;;;;;;;8.36;100.00;99677.86;105905;1258;65215;-86
2023/04/03 04:49:14;;;;;;;5.50;4.90;;;;;;;8.37;100.00;99679.88;106007;1251;72697;-87
2023/04/03 04:51:43;;;;;;;6.10;5.40;;;;;;;8.37;100.00;99677.43;106168;1253;63668;-86
2023/04/03 04:54:22;;;;;;;4.70;4.30;;;;;;;8.37;100.00;99676.59;106003;1251;61276;-87
2023/04/03 04:56:55;;;;;;;5.40;4.00;;;;;;;8.37;100.00;99673.29;106140;1251;74050;-87
2023/04/03 04:59:23;;;;;;;4.80;4.30;;;;;;;8.37;100.00;99671.91;105927;1250;62953;-83
2023/04/03 05:01:52;;;;;;;5.20;4.40;;;;;;;8.38;100.00;99672.33;106103;1253;73233;-86
2023/04/03 05:04:23;;;;;;;4.90;3.80;;;;;;;8.40;100.00;99667.15;106087;1253;62612;-87
2023/04/03 05:06:55;;;;;;;6.50;5.80;;;;;;;8.42;100.00;99669.50;106093;1253;60845;-88
2023/04/03 05:09:25;;;;;;;4.90;4.40;;;;;;;8.44;100.00;99668.47;106192;1252;74247;-84
2023/04/03 05:11:56;;;;;;;9.60;7.30;;;;;;;8.47;100.00;99668.98;106252;1256;64812;-84
2023/04/03 05:14:27;;;;;;;5.70;4.70;;;;;;;8.47;100.00;99666.34;106728;1251;73647;-86
2023/04/03 05:16:57;;;;;;;5.50;5.10;;;;;;;8.49;100.00;99672.16;106159;1253;61957;-83
2023/04/03 05:19:28;;;;;;;4.50;4.00;;;;;;;8.51;100.00;99665.43;105962;1252;62601;-86
2023/04/03 05:21:57;;;;;;;5.60;4.80;;;;;;;8.54;100.00;99666.59;106084;1254;72996;-84
2023/04/03 05:24:27;;;;;;;5.90;5.30;;;;;;;8.57;100.00;99665.40;106044;1249;63858;-84
2023/04/03 05:26:55;;;;;;;6.30;5.40;;;;;;;8.58;100.00;99664.75;106128;1254;73495;-86
2023/04/03 05:29:24;;;;;;;5.10;4.70;;;;;;;8.60;100.00;99663.41;106226;1253;63085;-85
2023/04/03 05:31:53;;;;;;;4.90;4.30;;;;;;;8.63;100.00;99665.11;106227;1253;61058;-86
2023/04/03 05:34:21;;;;;;;6.80;4.30;;;;;;;8.65;100.00;99661.32;106054;1252;72968;-86
2023/04/03 05:36:51;;;;;;;4.20;3.80;;;;;;;8.68;100.00;99665.48;106122;1253;65094;-86
2023/04/03 05:39:19;;;;;;;4.90;4.50;;;;;;;8.70;100.00;99665.16;106019;1251;73875;-84
2023/04/03 05:41:48;;;;;;;3.10;2.90;;;;;;;8.71;100.00;99665.13;106110;1251;62970;-85
2023/04/03 05:44:18;;;;;;;3.90;3.50;;;;;;;8.71;100.00;99664.42;106059;1251;60625;-82
2023/04/03 05:46:48;;;;;;;2.70;2.50;;;;;;;8.73;100.00;99670.23;106118;1261;73928;-85
2023/04/03 05:49:19;;;;;;;3.10;2.80;;;;;;;8.76;100.00;99670.20;105870;1250;63957;-81
2023/04/03 05:51:48;;;;;;;2.90;2.30;;;;;;;8.79;100.00;99670.88;105881;1258;73717;-85
2023/04/03 05:54:23;;;;;;;;;;;;;;;8.83;100.00;99671.64;106146;1251;61958;-85
2023/04/03 05:56:53;;;;;;;5.20;3.40;;;;;;;8.84;100.00;99673.48;106196;1251;60844;-85
2023/04/03 05:59:22;;;;;;;3.00;2.80;;;;;;;8.86;100.00;99677.89;106015;1257;74855;-84
2023/04/03 06:01:54;;;;;;;3.60;3.30;;;;;;;8.89;100.00;99676.98;106036;1259;64840;-85
2023/04/03 06:04:23;;;;;;;5.00;4.10;;;;;;;8.89;100.00;99678.02;106014;1251;73714;-85
2023/04/03 06:06:54;;;;;;;6.00;4.40;;;;;;;8.91;100.00;99677.16;106158;1250;62699;-85
2023/04/03 06:09:26;;;;;;;5.60;4.30;;;;;;;8.95;100.00;99678.30;106170;1250;61016;-84
2023/04/03 06:11:54;;;;;;;6.70;5.50;;;;;;;8.97;100.00;99678.89;106061;1253;75138;-86
2023/04/03 06:14:25;;;;;;;8.30;5.30;;;;;;;8.98;100.00;99679.84;106128;1251;64820;-83
2023/04/03 06:16:59;;;;;;;18.00;15.50;;;;;;;8.99;100.00;99677.33;106048;1251;72826;-85
2023/04/03 06:19:28;;;;;;;7.60;6.80;;;;;;;9.02;100.00;99677.33;106234;1254;61934;-85
2023/04/03 06:21:58;;;;;;;10.20;6.10;;;;;;;9.04;100.00;99680.51;106367;1256;60445;-83
2023/04/03 06:24:28;;;;;;;9.20;7.00;;;;;;;9.03;100.00;99678.83;106184;1254;74672;-84
2023/04/03 06:26:57;;;;;;;10.40;7.90;;;;;;;9.06;100.00;99676.67;106349;1253;64880;-85
2023/04/03 06:29:26;;;;;;;6.90;6.30;;;;;;;9.10;100.00;99678.98;106298;1252;73474;-82
2023/04/03 06:31:54;;;;;;;7.50;6.50;;;;;;;9.12;100.00;99677.85;106163;1254;62007;-84
2023/04/03 06:34:22;;;;;;;10.40;8.00;;;;;;;9.13;100.00;99679.48;106234;1254;60434;-85
2023/04/03 06:36:52;;;;;;;8.60;6.90;;;;;;;9.17;100.00;99679.77;106241;1253;75076;-85
2023/04/03 06:39:22;;;;;;;45.40;35.40;;;;;;;9.19;100.00;99682.26;106226;1253;64875;-85
2023/04/03 06:41:50;;;;;;;15.90;14.20;;;;;;;9.23;100.00;99683.55;106185;1253;72530;-85
2023/04/03 06:44:24;;;;;;;8.40;7.00;;;;;;;9.29;100.00;99686.90;106149;1256;62868;-83
2023/04/03 06:46:54;;;;;;;6.80;6.10;;;;;;;9.35;100.00;99684.63;106488;1253;60943;-84
2023/04/03 06:49:26;;;;;;;6.50;5.20;;;;;;;9.41;100.00;99683.13;106365;1256;74039;-85
2023/04/03 06:51:55;;;;;;;6.10;5.10;;;;;;;9.48;100.00;99686.64;106617;1251;64786;-83
2023/04/03 06:54:25;;;;;;;6.10;5.40;;;;;;;9.54;100.00;99686.73;106481;1257;73643;-85
2023/04/03 06:56:54;;;;;;;5.40;4.40;;;;;;;9.54;100.00;99689.70;106585;1251;62756;-84
2023/04/03 06:59:22;;;;;;;6.40;5.50;;;;;;;9.55;100.00;99690.35;106809;1253;60348;-84
2023/04/03 07:01:50;;;;;;;8.10;7.30;;;;;;;9.56;100.00;99690.63;106452;1258;74120;-85
2023/04/03 07:04:20;;;;;;;29.40;23.50;;;;;;;9.60;100.00;99693.84;107383;1253;64901;-85
2023/04/03 07:06:49;;;;;;;16.10;14.30;;;;;;;9.63;100.00;99691.71;106498;1253;73689;-86
2023/04/03 07:09:17;;;;;;;8.50;6.40;;;;;;;9.68;100.00;99696.27;106457;1253;62979;-86
2023/04/03 07:11:45;;;;;;;6.70;5.30;;;;;;;9.73;100.00;99692.23;106621;1257;60831;-82
2023/04/03 07:14:14;;;;;;;6.20;5.60;;;;;;;9.77;100.00;99694.92;106734;1254;74818;-85
2023/04/03 07:16:42;;;;;;;11.50;7.70;;;;;;;9.78;100.00;99695.54;106845;1250;64345;-85
2023/04/03 07:19:12;;;;;;;8.00;7.10;;;;;;;9.82;100.00;99696.66;106824;1251;73692;-85
2023/04/03 07:21:43;;;;;;;8.10;6.50;;;;;;;9.90;100.00;99692.23;106842;1254;61797;-86
2023/04/03 07:24:11;;;;;;;7.00;6.30;;;;;;;9.96;100.00;99695.44;106619;1257;60790;-85
2023/04/03 07:26:45;;;;;;;5.70;5.10;;;;;;;9.99;100.00;99692.45;106515;1251;73814;-85
2023/04/03 07:29:14;;;;;;;9.10;6.60;;;;;;;9.99;100.00;99695.29;106403;1251;64715;-82
2023/04/03 07:31:44;;;;;;;8.20;6.00;;;;;;;9.97;100.00;99698.02;106297;1254;73393;-83
2023/04/03 07:34:13;;;;;;;8.50;6.30;;;;;;;9.96;100.00;99697.70;106279;1254;61813;-84
2023/04/03 07:36:41;;;;;;;7.30;6.50;;;;;;;9.99;100.00;99701.04;106395;1255;61074;-86
2023/04/03 07:39:10;;;;;;;9.10;5.80;;;;;;;10.02;100.00;99699.40;106484;1263;74040;-85
2023/04/03 07:41:43;;;;;;;10.80;7.90;;;;;;;10.04;100.00;99701.69;106304;1251;64498;-86
2023/04/03 07:44:11;;;;;;;9.90;8.90;;;;;;;10.03;100.00;99704.39;106292;1254;73565;-85
2023/04/03 07:46:40;;;;;;;11.10;8.70;;;;;;;10.03;100.00;99704.58;106214;1250;62430;-85
2023/04/03 07:49:09;;;;;;;11.40;9.70;;;;;;;10.06;100.00;99709.91;106397;1253;61208;-84
2023/04/03 07:51:37;;;;;;;11.30;9.20;;;;;;;10.09;100.00;99705.34;106314;1257;74786;-85
2023/04/03 07:54:07;;;;;;;8.20;7.30;;;;;;;10.11;100.00;99707.45;106666;1253;64602;-85
2023/04/03 07:56:36;;;;;;;10.40;8.10;;;;;;;10.17;100.00;99708.09;106286;1257;72868;-86
2023/04/03 07:59:07;;;;;;;9.80;7.90;;;;;;;10.22;100.00;99713.14;106578;1254;62915;-84
2023/04/03 08:01:36;;;;;;;9.50;7.50;;;;;;;10.26;100.00;99715.33;106545;1256;60367;-87
2023/04/03 08:04:06;;;;;;;7.70;6.20;;;;;;;10.31;100.00;99714.80;106708;1253;74518;-84
2023/04/03 08:06:36;;;;;;;10.90;7.10;;;;;;;10.36;100.00;99716.48;106620;1253;64772;-83
2023/04/03 08:09:15;;;;;;;38.50;34.40;;;;;;;10.40;100.00;99719.38;106799;1253;73910;-83
2023/04/03 08:11:44;;;;;;;8.00;7.20;;;;;;;10.46;100.00;99714.91;106353;1256;62034;-85
2023/04/03 08:14:18;;;;;;;6.70;5.50;;;;;;;10.51;100.00;99722.23;106416;1252;61894;-85
2023/04/03 08:16:47;;;;;;;7.50;6.00;;;;;;;10.52;100.00;99720.73;106888;1251;74878;-87
2023/04/03 08:19:17;;;;;;;7.80;6.40;;;;;;;10.56;100.00;99721.29;106941;1257;64790;-88
2023/04/03 08:21:55;;;;;;;7.90;6.40;;;;;;;10.60;99.98;99723.33;106998;1253;73590;-87
2023/04/03 08:24:28;;;;;;;9.50;7.60;;;;;;;10.67;100.00;99727.52;106912;1251;60481;-85
2023/04/03 08:26:56;;;;;;;9.70;8.70;;;;;;;10.76;100.00;99728.59;106564;1251;60247;-87
2023/04/03 08:29:25;;;;;;;9.00;8.10;;;;;;;10.86;99.95;99733.76;106391;1251;74840;-86
2023/04/03 08:31:54;;;;;;;10.70;7.10;;;;;;;10.94;99.63;99731.27;106738;1253;64512;-84
2023/04/03 08:34:23;;;;;;;12.30;7.70;;;;;;;10.98;99.21;99736.53;106863;1251;73954;-86
2023/04/03 08:36:55;;;;;;;9.50;7.50;;;;;;;11.02;98.97;99734.70;106906;1253;62999;-86
2023/04/03 08:39:23;;;;;;;9.90;8.40;;;;;;;11.08;98.85;99737.88;106417;1253;60351;-85
2023/04/03 08:41:52;;;;;;;12.00;9.80;;;;;;;11.13;99.03;99737.80;106840;1253;73640;-86
2023/04/03 08:44:28;;;;;;;11.10;10.00;;;;;;;11.21;98.77;99741.23;106579;1256;64297;-87
2023/04/03 08:47:25;;;;;;;9.50;8.00;;;;;;;11.27;98.56;99742.40;106048;1258;72586;-87
2023/04/03 08:49:59;;;;;;;10.90;9.20;;;;;;;11.28;98.14;99744.04;106239;1253;63025;-85
2023/04/03 08:52:34;;;;;;;10.70;8.70;;;;;;;11.27;97.83;99746.27;107348;1251;60380;-85
2023/04/03 08:55:25;;;;;;;12.40;8.10;;;;;;;11.24;97.74;99746.33;108071;1250;74974;-85
2023/04/03 08:58:09;;;;;;;8.90;7.90;;;;;;;11.14;97.23;99743.67;107951;1251;64846;-83
2023/04/03 09:00:50;;;;;;;10.00;7.50;;;;;;;11.05;97.05;99750.21;106767;1252;72797;-84
2023/04/03 09:03:21;;;;;;;8.90;8.10;;;;;;;10.94;97.18;99750.44;106528;1251;62777;-85
2023/04/03 09:05:54;;;;;;;11.70;8.40;;;;;;;10.88;97.54;99751.44;106311;1251;60552;-85
2023/04/03 09:09:14;;;;;;;10.90;8.20;;;;;;;10.83;97.77;99752.85;106273;1253;74322;-85
2023/04/03 09:12:01;;;;;;;10.60;8.30;;;;;;;10.83;98.44;99755.55;105621;1261;63996;-86
2023/04/03 09:14:31;;;;;;;8.20;7.40;;;;;;;10.87;98.48;99765.15;105705;1261;73945;-84
2023/04/03 09:17:03;;;;;;;7.60;6.30;;;;;;;10.92;98.63;99767.04;105768;1263;62981;-85
2023/04/03 09:19:32;;;;;;;9.20;8.30;;;;;;;10.98;98.78;99768.73;105808;1260;60850;-85
2023/04/03 09:22:16;;;;;;;9.10;8.10;;;;;;;11.02;98.53;99768.95;105880;1260;74918;-86
2023/04/03 09:24:46;;;;;;;9.70;8.70;;;;;;;11.03;98.16;99771.70;105423;1262;64589;-86
2023/04/03 09:27:15;;;;;;;8.70;7.90;;;;;;;10.97;97.89;99775.91;105421;1263;73699;-86
2023/04/03 09:29:44;;;;;;;11.40;8.60;;;;;;;10.94;97.91;99778.52;105400;1263;63213;-86
2023/04/03 09:32:25;;;;;;;11.60;8.80;;;;;;;10.93;97.97;99779.61;105376;1263;61094;-85
2023/04/03 09:34:56;;;;;;;11.50;9.90;;;;;;;10.95;97.94;99782.91;105468;1264;74517;-86
2023/04/03 09:37:39;;;;;;;12.60;9.50;;;;;;;10.97;97.84;99779.94;105366;1261;64737;-85
2023/04/03 09:40:30;;;;;;;11.00;9.70;;;;;;;11.02;97.88;99785.56;105417;1263;73672;-84
2023/04/03 09:43:00;;;;;;;12.10;10.50;;;;;;;11.05;97.81;99787.39;105543;1263;62159;-84
2023/04/03 09:45:31;;;;;;;15.70;11.40;;;;;;;11.06;97.70;99791.21;105589;1258;61646;-83
2023/04/03 09:48:12;;;;;;;12.80;9.80;;;;;;;11.03;97.61;99795.50;105928;1254;74520;-83
2023/04/03 09:50:48;;;;;;;12.80;10.40;;;;;;;11.02;97.76;99795.21;106225;1254;64891;-84
2023/04/03 09:53:26;;;;;;;15.10;11.60;;;;;;;11.03;98.01;99798.45;106359;1254;74152;-83
2023/04/03 09:55:57;;;;;;;19.60;11.70;;;;;;;11.06;98.57;99803.61;105983;1256;62099;-83
2023/04/03 09:58:33;;;;;;;16.60;11.30;;;;;;;11.13;98.81;99808.17;106177;1254;60483;-84
2023/04/03 10:01:26;;;;;;;13.10;11.70;;;;;;;11.18;98.54;99809.71;106492;1254;75437;-85
2023/04/03 10:04:16;;;;;;;14.00;11.60;;;;;;;11.23;98.63;99814.61;106103;1253;65436;-85
2023/04/03 10:06:49;;;;;;;14.10;12.70;;;;;;;11.31;99.02;99813.65;106076;1252;72612;-83
2023/04/03 10:09:22;;;;;;;15.60;11.90;;;;;;;11.35;98.51;99813.98;106060;1251;63070;-83
2023/04/03 10:12:06;;;;;;;13.20;11.00;;;;;;;11.36;98.27;99819.18;106071;1254;60805;-83
2023/04/03 10:14:40;;;;;;;13.30;11.80;;;;;;;11.38;98.36;99825.14;106101;1254;74896;-84
2023/04/03 10:17:21;;;;;;;12.50;11.30;;;;;;;11.42;98.19;99828.23;106107;1254;63971;-86
2023/04/03 10:20:09;;;;;;;17.40;12.20;;;;;;;11.47;98.26;99833.95;106029;1254;73693;-84
2023/04/03 10:23:23;;;;;;;16.00;12.20;;;;;;;11.55;98.30;99838.25;106118;1254;63198;-84
2023/04/03 10:26:17;;;;;;;14.70;12.30;;;;;;;11.63;97.96;99843.91;106576;1253;60359;-84
2023/04/03 10:28:56;;;;;;;13.90;11.30;;;;;;;11.62;97.34;99852.38;106067;1254;74763;-83
2023/04/03 10:31:45;;;;;;;13.90;10.90;;;;;;;11.55;97.30;99856.40;106097;1251;63513;-85
2023/04/03 10:34:33;;;;;;;11.70;10.50;;;;;;;11.50;97.91;99857.33;106090;1254;73679;-83
2023/04/03 10:37:20;;;;;;;13.30;11.50;;;;;;;11.51;98.19;99864.46;106101;1253;62703;-85
2023/04/03 10:40:10;;;;;;;8.70;7.90;;;;;;;11.54;98.59;99862.62;105970;1256;60762;-85
2023/04/03 10:42:46;;;;;;;8.30;7.50;;;;;;;11.59;98.57;99872.90;105880;1256;74971;-85
2023/04/03 10:45:48;;;;;;;8.20;7.40;;;;;;;11.62;98.67;99873.41;105884;1259;64841;-83
2023/04/03 10:48:43;;;;;;;9.40;8.50;;;;;;;11.70;98.88;99878.61;106010;1256;73592;-84
2023/04/03 10:51:11;;;;;;;12.60;9.50;;;;;;;11.78;98.46;99881.48;106035;1254;60434;-84
2023/04/03 10:53:50;;;;;;;10.00;8.90;;;;;;;11.82;98.20;99882.18;105791;1252;61415;-84
2023/04/03 10:56:50;;;;;;;11.20;7.70;;;;;;;11.85;97.71;99887.41;105974;1254;73645;-84
2023/04/03 11:00:04;;;;;;;7.00;6.30;;;;;;;11.85;97.09;99888.48;105937;1253;62723;-85
2023/04/03 11:02:37;;;;;;;7.60;6.20;;;;;;;11.78;96.66;99889.67;105853;1253;72675;-85
2023/04/03 11:05:17;;;;;;;7.20;6.50;;;;;;;11.73;96.83;99889.03;105920;1254;62923;-83
2023/04/03 11:07:48;;;;;;;6.80;5.80;;;;;;;11.70;96.81;99892.91;105920;1257;60456;-85
2023/04/03 11:10:42;;;;;;;9.20;7.00;;;;;;;11.67;96.94;99895.63;105905;1254;72940;-84
2023/04/03 11:13:10;;;;;;;12.40;9.60;;;;;;;11.67;96.82;99898.27;105954;1257;63614;-85
2023/04/03 11:15:40;;;;;;;13.70;12.30;;;;;;;11.67;96.76;99904.06;106155;1254;73987;-85
2023/04/03 11:18:13;;;;;;;18.50;14.80;;;;;;;11.65;96.53;99906.15;106025;1256;62240;-85
2023/04/03 11:20:48;;;;;;;19.00;14.50;;;;;;;11.59;96.13;99908.65;106103;1254;61112;-83
2023/04/03 11:23:21;;;;;;;25.70;18.30;;;;;;;11.51;96.00;99911.72;106252;1255;73866;-86
2023/04/03 11:25:52;;;;;;;25.30;17.80;;;;;;;11.43;95.98;99908.09;105893;1254;64531;-87
2023/04/03 11:28:22;;;;;;;29.40;19.00;;;;;;;11.35;95.93;99913.43;106021;1257;73913;-84
2023/04/03 11:31:09;;;;;;;24.60;19.20;;;;;;;11.29;96.13;99918.39;105961;1254;63200;-85
2023/04/03 11:33:48;;;;;;;29.50;20.50;;;;;;;11.24;96.24;99919.52;105931;1257;60978;-84
2023/04/03 11:36:52;;;;;;;27.00;19.30;;;;;;;11.23;96.58;99919.95;106014;1256;74841;-86
2023/04/03 11:39:29;;;;;;;29.60;18.00;;;;;;;11.22;96.62;99921.02;105531;1261;64428;-86
2023/04/03 11:42:26;;;;;;;25.30;17.40;;;;;;;11.23;96.69;99925.55;105533;1264;74308;-85
2023/04/03 11:45:26;;;;;;;26.40;17.80;;;;;;;11.21;96.76;99929.20;105440;1262;63054;-85
2023/04/03 11:47:58;;;;;;;29.30;19.00;;;;;;;11.22;96.86;99934.66;105466;1263;61086;-85